createdAt,value
2022-11-20T00:01:28.285Z,7.60
2022-11-20T00:03:58.652Z,7.60
2022-11-20T00:06:27.553Z,7.60
2022-11-20T00:09:01.100Z,7.60
2022-11-20T00:11:30.526Z,7.60
2022-11-20T00:14:00.269Z,7.70
2022-11-20T00:16:29.122Z,7.70
2022-11-20T00:18:56.500Z,7.70
2022-11-20T00:21:26.390Z,7.80
2022-11-20T00:23:56.439Z,7.80
2022-11-20T00:26:25.767Z,7.80
2022-11-20T00:28:55.629Z,7.70
2022-11-20T00:31:23.495Z,7.80
2022-11-20T00:33:51.247Z,7.80
2022-11-20T00:36:21.075Z,7.80
2022-11-20T00:38:52.497Z,7.80
2022-11-20T00:41:19.866Z,7.80
2022-11-20T00:43:47.228Z,7.80
2022-11-20T00:46:16.928Z,7.80
2022-11-20T00:48:44.913Z,7.80
2022-11-20T00:51:14.060Z,7.80
2022-11-20T00:53:41.726Z,7.80
2022-11-20T00:56:13.500Z,7.80
2022-11-20T00:58:43.038Z,7.80
2022-11-20T01:01:22.072Z,7.90
2022-11-20T01:03:51.134Z,7.90
2022-11-20T01:06:28.968Z,7.90
2022-11-20T01:08:58.799Z,7.90
2022-11-20T01:11:31.505Z,7.90
2022-11-20T01:14:00.414Z,8.00
2022-11-20T01:16:33.537Z,7.90
2022-11-20T01:19:03.195Z,8.00
2022-11-20T01:21:33.957Z,8.00
2022-11-20T01:24:02.063Z,8.10
2022-11-20T01:26:32.589Z,8.10
2022-11-20T01:29:01.226Z,8.10
2022-11-20T01:31:34.178Z,8.10
2022-11-20T01:34:16.770Z,8.10
2022-11-20T01:36:45.038Z,8.10
2022-11-20T01:39:18.468Z,8.10
2022-11-20T01:42:09.623Z,8.10
2022-11-20T01:44:51.565Z,8.10
2022-11-20T01:47:34.888Z,8.20
2022-11-20T01:50:11.259Z,8.20
2022-11-20T01:52:44.594Z,8.20
2022-11-20T01:55:17.302Z,8.30
2022-11-20T01:57:46.586Z,8.30
2022-11-20T02:00:16.343Z,8.30
2022-11-20T02:02:49.185Z,8.30
2022-11-20T02:05:26.836Z,8.30
2022-11-20T02:07:57.132Z,8.30
2022-11-20T02:10:25.058Z,8.30
2022-11-20T02:13:11.393Z,8.30
2022-11-20T02:15:38.858Z,8.30
2022-11-20T02:18:07.086Z,8.40
2022-11-20T02:20:34.641Z,8.40
2022-11-20T02:23:41.805Z,8.40
2022-11-20T02:26:14.060Z,8.40
2022-11-20T02:28:41.469Z,8.40
2022-11-20T02:31:08.928Z,8.40
2022-11-20T02:33:36.327Z,8.40
2022-11-20T02:36:04.016Z,8.40
2022-11-20T02:38:31.522Z,8.40
2022-11-20T02:40:58.857Z,8.40
2022-11-20T02:43:26.199Z,8.40
2022-11-20T02:50:26.281Z,8.50
2022-11-20T02:52:53.729Z,8.50
2022-11-20T02:55:21.127Z,8.40
2022-11-20T02:57:48.582Z,8.40
2022-11-20T03:00:16.172Z,8.50
2022-11-20T03:02:43.661Z,8.50
2022-11-20T03:05:11.066Z,8.40
2022-11-20T03:07:38.464Z,8.40
2022-11-20T03:10:06.605Z,8.40
2022-11-20T03:12:34.055Z,8.40
2022-11-20T03:15:01.695Z,8.40
2022-11-20T03:17:30.399Z,8.40
2022-11-20T03:19:57.778Z,8.50
2022-11-20T03:22:25.169Z,8.50
2022-11-20T03:24:53.003Z,8.50
2022-11-20T03:27:20.346Z,8.50
2022-11-20T03:29:47.713Z,8.50
2022-11-20T03:32:15.074Z,8.50
2022-11-20T03:34:42.390Z,8.50
2022-11-20T03:37:09.780Z,8.50
2022-11-20T03:39:37.231Z,8.60
2022-11-20T03:42:24.627Z,8.60
2022-11-20T03:44:51.953Z,8.70
2022-11-20T03:47:19.424Z,8.70
2022-11-20T03:49:46.790Z,8.70
2022-11-20T03:52:14.156Z,8.70
2022-11-20T03:54:41.495Z,8.70
2022-11-20T03:57:08.867Z,8.60
2022-11-20T03:59:36.250Z,8.60
2022-11-20T04:02:03.701Z,8.50
2022-11-20T04:04:31.188Z,8.50
2022-11-20T04:06:58.676Z,8.50
2022-11-20T04:09:26.221Z,8.40
2022-11-20T04:11:53.613Z,8.30
2022-11-20T04:14:21.176Z,8.20
2022-11-20T04:16:48.609Z,8.10
2022-11-20T04:19:17.405Z,8.10
2022-11-20T04:21:45.694Z,8.10
2022-11-20T04:24:13.345Z,8.00
2022-11-20T04:26:41.375Z,8.10
2022-11-20T04:29:12.778Z,8.10
2022-11-20T04:31:40.253Z,8.10
2022-11-20T04:34:08.304Z,8.10
2022-11-20T04:36:36.110Z,8.10
2022-11-20T04:39:05.990Z,8.10
2022-11-20T04:41:35.562Z,8.10
2022-11-20T04:44:04.921Z,8.10
2022-11-20T04:46:34.828Z,8.10
2022-11-20T04:49:02.231Z,8.20
2022-11-20T04:51:29.757Z,8.20
2022-11-20T04:53:57.192Z,8.20
2022-11-20T04:56:24.592Z,8.30
2022-11-20T04:58:52.224Z,8.30
2022-11-20T05:01:22.282Z,8.30
2022-11-20T05:03:50.378Z,8.40
2022-11-20T05:06:19.851Z,8.30
2022-11-20T05:08:47.457Z,8.40
2022-11-20T05:11:17.329Z,8.40
2022-11-20T05:13:44.773Z,8.40
2022-11-20T05:16:18.168Z,8.40
2022-11-20T05:18:46.017Z,8.40
2022-11-20T05:21:14.537Z,8.40
2022-11-20T05:23:42.548Z,8.40
2022-11-20T05:26:22.880Z,8.40
2022-11-20T05:28:51.390Z,8.40
2022-11-20T05:31:26.713Z,8.40
2022-11-20T05:33:56.277Z,8.40
2022-11-20T05:36:23.877Z,8.40
2022-11-20T05:38:52.914Z,8.40
2022-11-20T05:41:22.305Z,8.40
2022-11-20T05:43:50.855Z,8.40
2022-11-20T05:46:26.390Z,8.40
2022-11-20T05:48:55.906Z,8.40
2022-11-20T05:51:23.449Z,8.50
2022-11-20T05:53:50.872Z,8.50
2022-11-20T05:56:20.210Z,8.50
2022-11-20T05:58:48.339Z,8.50
2022-11-20T06:01:24.834Z,8.50
2022-11-20T06:03:53.404Z,8.50
2022-11-20T06:06:21.365Z,8.50
2022-11-20T06:08:49.287Z,8.50
2022-11-20T06:11:17.810Z,8.50
2022-11-20T06:13:46.387Z,8.50
2022-11-20T06:16:16.632Z,8.50
2022-11-20T06:18:44.015Z,8.50
2022-11-20T06:21:18.347Z,8.50
2022-11-20T06:23:46.168Z,8.50
2022-11-20T06:26:22.360Z,8.50
2022-11-20T06:28:50.139Z,8.50
2022-11-20T06:31:20.641Z,8.40
2022-11-20T06:33:49.106Z,8.40
2022-11-20T06:36:19.019Z,8.40
2022-11-20T06:38:46.756Z,8.40
2022-11-20T06:41:17.707Z,8.40
2022-11-20T06:43:45.424Z,8.40
2022-11-20T06:46:14.496Z,8.50
2022-11-20T06:48:42.038Z,8.40
2022-11-20T06:51:09.728Z,8.40
2022-11-20T06:53:38.283Z,8.50
2022-11-20T06:56:06.506Z,8.50
2022-11-20T06:58:37.146Z,8.50
2022-11-20T07:01:11.193Z,8.60
2022-11-20T07:03:39.162Z,8.60
2022-11-20T07:06:07.345Z,8.60
2022-11-20T07:08:35.596Z,8.60
2022-11-20T07:11:05.810Z,8.60
2022-11-20T07:13:33.835Z,8.50
2022-11-20T07:16:03.281Z,8.50
2022-11-20T07:18:31.188Z,8.50
2022-11-20T07:21:05.305Z,8.50
2022-11-20T07:23:32.901Z,8.50
2022-11-20T07:26:05.193Z,8.50
2022-11-20T07:28:32.873Z,8.50
2022-11-20T07:31:00.248Z,8.50
2022-11-20T07:33:27.669Z,8.60
2022-11-20T07:35:55.060Z,8.70
2022-11-20T07:38:22.428Z,8.90
2022-11-20T07:40:54.070Z,9.00
2022-11-20T07:43:21.384Z,8.90
2022-11-20T07:45:48.729Z,9.00
2022-11-20T07:48:16.146Z,9.00
2022-11-20T07:50:43.465Z,9.00
2022-11-20T07:53:10.866Z,8.80
2022-11-20T07:55:38.205Z,8.70
2022-11-20T07:58:05.541Z,8.70
2022-11-20T08:00:32.907Z,8.60
2022-11-20T08:03:00.268Z,8.60
2022-11-20T08:05:27.641Z,8.60
2022-11-20T08:07:54.961Z,8.60
2022-11-20T08:10:22.326Z,8.60
2022-11-20T08:13:10.246Z,8.70
2022-11-20T08:15:39.213Z,8.70
2022-11-20T08:21:04.574Z,8.70
2022-11-20T08:23:32.180Z,8.70
2022-11-20T08:25:59.674Z,8.70
2022-11-20T08:28:27.042Z,8.70
2022-11-20T08:31:02.502Z,8.70
2022-11-20T08:33:30.853Z,8.70
2022-11-20T08:36:02.582Z,8.70
2022-11-20T08:38:31.066Z,8.50
2022-11-20T08:41:21.735Z,8.40
2022-11-20T08:43:49.983Z,8.40
2022-11-20T08:46:18.083Z,8.30
2022-11-20T08:48:46.010Z,8.30
2022-11-20T08:51:14.066Z,8.50
2022-11-20T08:53:42.626Z,8.40
2022-11-20T08:56:10.784Z,8.40
2022-11-20T08:59:09.712Z,8.30
2022-11-20T09:01:28.251Z,8.30
2022-11-20T09:04:00.659Z,8.20
2022-11-20T09:06:28.145Z,8.20
2022-11-20T09:08:55.912Z,8.30
2022-11-20T09:11:23.816Z,8.30
2022-11-20T09:13:51.568Z,8.40
2022-11-20T09:16:18.994Z,8.30
2022-11-20T09:18:46.655Z,8.40
2022-11-20T09:21:14.944Z,8.40
2022-11-20T09:23:42.530Z,8.40
2022-11-20T09:26:14.409Z,8.50
2022-11-20T09:28:42.341Z,8.50
2022-11-20T09:31:18.694Z,8.70
2022-11-20T09:33:46.048Z,8.70
2022-11-20T09:36:13.593Z,8.60
2022-11-20T09:38:40.975Z,8.50
2022-11-20T09:41:29.334Z,8.50
2022-11-20T09:44:30.635Z,8.60
2022-11-20T09:47:20.803Z,8.60
2022-11-20T09:50:19.709Z,8.70
2022-11-20T09:53:12.664Z,8.70
2022-11-20T09:55:40.843Z,8.70
2022-11-20T09:58:16.371Z,8.70
2022-11-20T10:00:43.987Z,8.70
2022-11-20T10:03:30.717Z,8.60
2022-11-20T10:06:01.040Z,8.70
2022-11-20T10:08:51.543Z,8.70
2022-11-20T10:11:23.272Z,8.60
2022-11-20T10:13:57.492Z,8.60
2022-11-20T10:16:39.481Z,8.70
2022-11-20T10:19:13.845Z,8.70
2022-11-20T10:22:13.141Z,8.70
2022-11-20T10:24:45.725Z,8.80
2022-11-20T10:27:31.093Z,8.90
2022-11-20T10:30:27.475Z,8.90
2022-11-20T10:33:05.689Z,9.00
2022-11-20T10:35:39.250Z,9.00
2022-11-20T10:38:15.962Z,9.10
2022-11-20T10:40:52.043Z,9.10
2022-11-20T10:43:26.086Z,9.20
2022-11-20T10:46:16.176Z,9.30
2022-11-20T10:48:46.124Z,9.30
2022-11-20T10:51:32.002Z,9.30
2022-11-20T10:54:02.561Z,9.40
2022-11-20T10:56:53.247Z,9.50
2022-11-20T10:59:36.312Z,9.50
2022-11-20T11:02:22.911Z,9.50
2022-11-20T11:04:54.754Z,9.50
2022-11-20T11:07:31.599Z,9.60
2022-11-20T11:09:59.141Z,9.60
2022-11-20T11:12:28.779Z,9.70
2022-11-20T11:14:58.502Z,9.70
2022-11-20T11:17:34.198Z,9.80
2022-11-20T11:20:26.666Z,9.80
2022-11-20T11:22:56.683Z,9.80
2022-11-20T11:25:35.963Z,9.80
2022-11-20T11:28:27.086Z,9.80
2022-11-20T11:30:55.905Z,9.90
2022-11-20T11:33:31.843Z,10.00
2022-11-20T11:36:02.559Z,10.00
2022-11-20T11:38:37.699Z,10.10
2022-11-20T11:41:13.824Z,10.20
2022-11-20T11:44:09.025Z,10.20
2022-11-20T11:46:37.894Z,10.30
2022-11-20T11:49:11.148Z,10.30
2022-11-20T11:52:03.124Z,10.30
2022-11-20T11:54:49.406Z,10.40
2022-11-20T11:57:30.580Z,10.50
2022-11-20T12:00:00.656Z,10.50
2022-11-20T12:02:51.173Z,10.60
2022-11-20T12:05:39.575Z,10.70
2022-11-20T12:08:30.214Z,11.10
2022-11-20T12:11:00.732Z,11.50
2022-11-20T12:13:49.482Z,11.90
2022-11-20T12:16:20.215Z,12.10
2022-11-20T12:18:51.249Z,12.20
2022-11-20T12:21:24.593Z,12.20
2022-11-20T12:24:13.648Z,12.20
2022-11-20T12:27:04.163Z,12.30
2022-11-20T12:29:41.544Z,12.60
2022-11-20T12:32:40.714Z,12.70
2022-11-20T12:35:42.833Z,12.80
2022-11-20T12:38:42.606Z,12.70
2022-11-20T12:41:46.766Z,12.80
2022-11-20T12:44:41.898Z,12.80
2022-11-20T12:47:55.413Z,12.90
2022-11-20T12:50:28.974Z,13.10
2022-11-20T12:53:11.889Z,13.20
2022-11-20T12:55:56.616Z,13.20
2022-11-20T12:58:49.455Z,13.10
2022-11-20T13:01:40.897Z,13.10
2022-11-20T13:04:27.665Z,12.90
2022-11-20T13:06:55.906Z,12.80
2022-11-20T13:09:24.768Z,12.80
2022-11-20T13:11:58.142Z,13.00
2022-11-20T13:14:51.562Z,12.90
2022-11-20T13:17:52.037Z,12.70
2022-11-20T13:20:20.369Z,12.80
2022-11-20T13:22:50.203Z,12.80
2022-11-20T13:25:28.239Z,12.50
2022-11-20T13:27:58.235Z,12.20
2022-11-20T13:30:30.009Z,11.90
2022-11-20T13:33:10.343Z,11.70
2022-11-20T13:35:42.146Z,11.50
2022-11-20T13:38:14.409Z,11.30
2022-11-20T13:40:59.066Z,11.20
2022-11-20T13:43:29.124Z,11.20
2022-11-20T13:46:00.061Z,11.20
2022-11-20T13:48:32.315Z,11.20
2022-11-20T13:51:34.369Z,11.20
2022-11-20T13:54:10.821Z,11.30
2022-11-20T13:56:50.257Z,11.30
2022-11-20T13:59:35.998Z,11.30
2022-11-20T14:02:03.642Z,11.10
2022-11-20T14:04:36.071Z,11.10
2022-11-20T14:07:07.502Z,11.00
2022-11-20T14:09:35.395Z,11.00
2022-11-20T14:12:04.566Z,10.90
2022-11-20T14:14:34.506Z,10.90
2022-11-20T14:17:32.893Z,10.90
2022-11-20T14:20:07.085Z,10.90
2022-11-20T14:22:34.461Z,10.90
2022-11-20T14:25:19.065Z,10.90
2022-11-20T14:27:53.227Z,10.90
2022-11-20T14:30:23.860Z,10.90
2022-11-20T14:32:54.159Z,10.90
2022-11-20T14:35:45.475Z,10.80
2022-11-20T14:38:16.939Z,10.90
2022-11-20T14:40:44.834Z,10.80
2022-11-20T14:43:22.329Z,10.80
2022-11-20T14:46:04.815Z,10.80
2022-11-20T14:48:37.044Z,10.80
2022-11-20T14:51:04.573Z,10.80
2022-11-20T14:53:31.959Z,10.80
2022-11-20T14:56:02.073Z,10.80
2022-11-20T14:58:32.833Z,10.80
2022-11-20T15:01:03.023Z,10.70
2022-11-20T15:03:33.578Z,10.70
2022-11-20T15:06:01.427Z,10.60
2022-11-20T15:08:29.347Z,10.60
2022-11-20T15:10:57.112Z,10.50
2022-11-20T15:13:33.923Z,10.40
2022-11-20T15:16:18.338Z,10.30
2022-11-20T15:18:45.801Z,10.30
2022-11-20T15:21:16.370Z,10.20
2022-11-20T15:23:44.657Z,10.20
2022-11-20T15:26:19.528Z,10.10
2022-11-20T15:28:51.104Z,10.10
2022-11-20T15:31:20.032Z,10.10
2022-11-20T15:33:47.552Z,10.10
2022-11-20T15:36:14.970Z,10.10
2022-11-20T15:38:42.571Z,10.10
2022-11-20T15:41:10.119Z,10.20
2022-11-20T15:43:37.856Z,10.20
2022-11-20T15:46:10.171Z,10.20
2022-11-20T15:48:50.723Z,10.20
2022-11-20T15:51:29.113Z,10.20
2022-11-20T15:53:57.118Z,10.10
2022-11-20T15:56:24.784Z,10.20
2022-11-20T15:58:52.128Z,10.10
2022-11-20T16:01:22.582Z,10.20
2022-11-20T16:03:50.313Z,10.20
2022-11-20T16:06:17.674Z,10.20
2022-11-20T16:08:45.103Z,10.10
2022-11-20T16:11:15.317Z,10.10
2022-11-20T16:14:01.214Z,10.10
2022-11-20T16:16:32.027Z,10.10
2022-11-20T16:19:00.182Z,10.00
2022-11-20T16:21:31.639Z,10.00
2022-11-20T16:24:00.139Z,9.90
2022-11-20T16:26:28.282Z,10.00
2022-11-20T16:29:00.004Z,10.00
2022-11-20T16:31:27.468Z,10.00
2022-11-20T16:33:57.135Z,9.90
2022-11-20T16:36:26.596Z,10.00
2022-11-20T16:39:00.559Z,10.00
2022-11-20T16:41:30.606Z,9.90
2022-11-20T16:44:00.074Z,9.90
2022-11-20T16:46:30.623Z,10.00
2022-11-20T16:48:59.511Z,10.00
2022-11-20T16:51:28.297Z,10.00
2022-11-20T16:53:56.017Z,10.00
2022-11-20T16:56:27.754Z,10.00
2022-11-20T16:58:57.818Z,10.00
2022-11-20T17:01:26.689Z,10.00
2022-11-20T17:04:02.348Z,9.90
2022-11-20T17:06:35.767Z,10.00
2022-11-20T17:09:04.204Z,10.00
2022-11-20T17:11:33.513Z,10.00
2022-11-20T17:14:02.345Z,10.00
2022-11-20T17:16:31.223Z,10.00
2022-11-20T17:19:03.027Z,10.00
2022-11-20T17:21:32.508Z,9.90
2022-11-20T17:24:04.987Z,9.90
2022-11-20T17:26:33.168Z,9.80
2022-11-20T17:29:03.591Z,9.80
2022-11-20T17:31:33.714Z,9.80
2022-11-20T17:34:01.920Z,9.70
2022-11-20T17:36:34.667Z,9.70
2022-11-20T17:39:02.673Z,9.60
2022-11-20T17:41:31.123Z,9.60
2022-11-20T17:44:00.319Z,9.50
2022-11-20T17:46:30.366Z,9.50
2022-11-20T17:48:57.865Z,9.40
2022-11-20T17:51:28.301Z,9.40
2022-11-20T17:54:01.175Z,9.40
2022-11-20T17:56:53.834Z,9.30
2022-11-20T17:59:21.653Z,9.30
2022-11-20T18:01:49.340Z,9.30
2022-11-20T18:04:17.096Z,9.20
2022-11-20T18:06:44.624Z,9.20
2022-11-20T18:09:12.294Z,9.10
2022-11-20T18:11:41.329Z,9.10
2022-11-20T18:14:31.015Z,9.10
2022-11-20T18:17:05.726Z,9.10
2022-11-20T18:19:40.426Z,9.00
2022-11-20T18:22:16.648Z,9.00
2022-11-20T18:24:45.404Z,9.00
2022-11-20T18:27:19.331Z,8.90
2022-11-20T18:29:52.478Z,8.90
2022-11-20T18:32:21.621Z,8.90
2022-11-20T18:34:49.129Z,8.90
2022-11-20T18:37:17.353Z,8.90
2022-11-20T18:39:44.936Z,8.80
2022-11-20T18:42:33.481Z,8.70
2022-11-20T18:45:02.266Z,8.70
2022-11-20T18:47:32.027Z,8.60
2022-11-20T18:50:01.075Z,8.60
2022-11-20T18:52:34.185Z,8.60
2022-11-20T18:55:02.869Z,8.60
2022-11-20T18:57:31.320Z,8.60
2022-11-20T19:00:08.274Z,8.50
2022-11-20T19:02:41.499Z,8.50
2022-11-20T19:05:14.662Z,8.50
2022-11-20T19:07:42.928Z,8.50
2022-11-20T19:10:10.778Z,8.40
2022-11-20T19:12:38.403Z,8.40
2022-11-20T19:15:06.372Z,8.30
2022-11-20T19:17:34.101Z,8.30
2022-11-20T19:20:01.556Z,8.30
2022-11-20T19:22:29.087Z,8.30
2022-11-20T19:24:56.463Z,8.30
2022-11-20T19:27:23.835Z,8.20
2022-11-20T19:29:51.313Z,8.20
2022-11-20T19:32:18.778Z,8.20
2022-11-20T19:34:46.113Z,8.20
2022-11-20T19:37:13.550Z,8.10
2022-11-20T19:44:17.033Z,8.10
2022-11-20T19:46:44.588Z,8.10
2022-11-20T19:49:14.477Z,8.10
2022-11-20T19:51:49.214Z,8.20
2022-11-20T19:54:17.454Z,8.20
2022-11-20T19:56:45.610Z,8.10
2022-11-20T19:59:13.843Z,8.20
2022-11-20T20:01:41.450Z,8.10
2022-11-20T20:04:08.950Z,8.00
2022-11-20T20:06:39.915Z,8.00
2022-11-20T20:09:12.357Z,8.00
2022-11-20T20:11:44.355Z,8.00
2022-11-20T20:14:14.694Z,7.90
2022-11-20T20:16:43.180Z,7.90
2022-11-20T20:19:15.513Z,7.90
2022-11-20T20:21:43.942Z,7.90
2022-11-20T20:24:12.251Z,7.80
2022-11-20T20:26:39.922Z,7.80
2022-11-20T20:29:07.365Z,7.70
2022-11-20T20:31:35.155Z,7.70
2022-11-20T20:34:05.284Z,7.70
2022-11-20T20:36:32.795Z,7.70
2022-11-20T20:39:00.147Z,7.70
2022-11-20T20:41:27.632Z,7.60
2022-11-20T20:44:13.607Z,7.70
2022-11-20T20:46:41.278Z,7.60
2022-11-20T20:49:09.294Z,7.60
2022-11-20T20:51:37.124Z,7.60
2022-11-20T20:54:05.596Z,7.70
2022-11-20T20:56:33.256Z,7.80
2022-11-20T20:59:00.682Z,7.70
2022-11-20T21:01:28.929Z,7.60
2022-11-20T21:03:57.206Z,7.60
2022-11-20T21:06:25.219Z,7.50
2022-11-20T21:08:52.988Z,7.50
2022-11-20T21:11:20.686Z,7.40
2022-11-20T21:13:49.396Z,7.40
2022-11-20T21:16:19.299Z,7.40
2022-11-20T21:18:47.103Z,7.40
2022-11-20T21:21:34.375Z,7.40
2022-11-20T21:24:02.385Z,7.30
2022-11-20T21:26:29.721Z,7.40
2022-11-20T21:28:57.593Z,7.30
2022-11-20T21:31:26.734Z,7.30
2022-11-20T21:33:55.806Z,7.30
2022-11-20T21:36:25.558Z,7.30
2022-11-20T21:38:55.357Z,7.30
2022-11-20T21:41:23.973Z,7.30
2022-11-20T21:44:16.257Z,7.30
2022-11-20T21:46:42.434Z,7.20
2022-11-20T21:49:10.696Z,7.20
2022-11-20T21:51:38.149Z,7.20
2022-11-20T21:54:05.621Z,7.20
2022-11-20T21:56:33.007Z,7.20
2022-11-20T21:59:00.577Z,7.20
2022-11-20T22:01:29.563Z,7.10
2022-11-20T22:04:01.762Z,7.10
2022-11-20T22:06:34.399Z,7.10
2022-11-20T22:09:02.458Z,7.10
2022-11-20T22:11:31.280Z,7.10
2022-11-20T22:14:17.267Z,7.10
2022-11-20T22:16:44.743Z,7.10
2022-11-20T22:19:15.434Z,7.00
2022-11-20T22:21:42.853Z,7.00
2022-11-20T22:24:13.830Z,7.00
2022-11-20T22:26:41.376Z,6.90
2022-11-20T22:29:13.737Z,6.90
2022-11-20T22:31:41.342Z,6.90
2022-11-20T22:34:11.383Z,7.00
2022-11-20T22:36:40.126Z,6.90
2022-11-20T22:39:07.724Z,6.90
2022-11-20T22:41:35.216Z,7.00
2022-11-20T22:44:05.142Z,7.00
2022-11-20T22:46:34.756Z,7.00
2022-11-20T22:49:04.753Z,7.00
2022-11-20T22:51:34.286Z,7.00
2022-11-20T22:54:03.619Z,7.00
2022-11-20T22:56:32.959Z,7.00
2022-11-20T22:59:00.358Z,7.00
2022-11-20T23:01:32.943Z,7.00
2022-11-20T23:04:02.669Z,7.00
2022-11-20T23:06:34.194Z,7.00
2022-11-20T23:09:03.419Z,7.00
2022-11-20T23:11:32.058Z,6.90
2022-11-20T23:14:26.377Z,6.90
2022-11-20T23:16:54.957Z,7.00
2022-11-20T23:19:22.665Z,7.00
2022-11-20T23:21:50.058Z,7.00
2022-11-20T23:24:17.443Z,7.00
2022-11-20T23:26:46.955Z,7.00
2022-11-20T23:29:14.341Z,6.90
2022-11-20T23:31:41.838Z,7.00
2022-11-20T23:38:43.647Z,6.80
2022-11-20T23:41:12.222Z,6.80
2022-11-20T23:43:40.803Z,6.80
2022-11-20T23:46:11.446Z,6.80
2022-11-20T23:48:41.349Z,6.80
2022-11-20T23:51:09.510Z,6.80
2022-11-20T23:53:36.874Z,6.80
2022-11-20T23:56:05.374Z,6.90
2022-11-20T23:58:35.922Z,6.90
